Time;durP1;ratioP1;P1;durP2;ratioP2;P2;SDS_P1;SDS_P2;PMS_P1;PMS_P2;Temp;Humidity;BMP_temperature;BMP_pressure;BME280_temperature;BME280_humidity;BME280_pressure;Samples;Min_cycle;Max_cycle;Signal;HPM_P1;HPM_P2
2023/04/12 00:01:37;;;;;;;11.10;8.50;;;;;;;7.23;70.13;99914.11;112878;1239;21987;-77
2023/04/12 00:04:15;;;;;;;10.70;8.90;;;;;;;7.22;70.06;99909.80;112867;1239;23726;-76
2023/04/12 00:06:56;;;;;;;11.30;9.50;;;;;;;7.19;70.10;99906.25;113172;1233;21982;-75
2023/04/12 00:09:29;;;;;;;10.70;9.30;;;;;;;7.15;70.08;99903.80;113404;1233;23162;-76
2023/04/12 00:12:00;;;;;;;11.20;8.80;;;;;;;7.14;70.24;99903.48;113777;1229;23010;-77
2023/04/12 00:14:39;;;;;;;10.40;7.80;;;;;;;7.16;70.23;99903.42;113658;1233;21987;-77
2023/04/12 00:17:09;;;;;;;12.90;7.80;;;;;;;7.13;70.17;99904.39;113437;1233;21928;-76
2023/04/12 00:19:43;;;;;;;10.90;8.20;;;;;;;7.09;70.14;99901.19;113809;1233;21943;-77
2023/04/12 00:22:18;;;;;;;12.30;8.20;;;;;;;7.05;70.21;99896.64;113803;1231;21963;-78
2023/04/12 00:24:56;;;;;;;11.10;8.80;;;;;;;7.02;70.28;99892.43;113220;1237;23693;-77
2023/04/12 00:27:26;;;;;;;13.50;8.40;;;;;;;7.00;70.33;99896.46;113251;1237;21965;-76
2023/04/12 00:29:56;;;;;;;10.80;8.60;;;;;;;6.98;70.19;99895.29;113223;1235;23016;-76
2023/04/12 00:32:27;;;;;;;12.00;9.00;;;;;;;6.96;70.13;99893.47;113368;1237;21946;-76
2023/04/12 00:34:59;;;;;;;12.70;7.80;;;;;;;6.93;70.19;99891.66;112480;1242;23426;-77
2023/04/12 00:37:32;;;;;;;13.30;7.90;;;;;;;6.93;70.35;99890.98;112486;1242;21950;-77
2023/04/12 00:40:07;;;;;;;10.40;7.40;;;;;;;6.93;70.39;99895.11;112008;1246;23691;-76
2023/04/12 00:42:36;;;;;;;9.20;7.50;;;;;;;6.94;70.49;99897.88;111758;1248;22017;-79
2023/04/12 00:45:07;;;;;;;10.70;7.80;;;;;;;6.94;70.59;99898.88;112167;1249;22023;-76
2023/04/12 00:47:42;;;;;;;13.40;7.70;;;;;;;6.95;70.60;99897.64;111774;1249;23620;-76
2023/04/12 00:50:11;;;;;;;9.10;7.20;;;;;;;6.94;70.59;99901.14;111881;1246;22441;-76
2023/04/12 00:52:44;;;;;;;12.40;8.20;;;;;;;6.94;70.44;99900.80;112086;1245;23632;-77
2023/04/12 00:55:14;;;;;;;15.30;8.00;;;;;;;6.93;70.45;99895.98;112053;1238;23739;-77
2023/04/12 00:57:45;;;;;;;11.40;7.30;;;;;;;6.92;70.44;99893.58;112162;1232;21980;-76
2023/04/12 01:00:16;;;;;;;13.20;8.00;;;;;;;6.92;70.51;99899.29;113241;1233;23604;-77
2023/04/12 01:02:49;;;;;;;10.80;7.30;;;;;;;6.91;70.44;99904.02;113647;1233;21946;-78
2023/04/12 01:05:22;;;;;;;9.00;8.00;;;;;;;6.86;70.44;99905.35;113558;1233;22192;-76
2023/04/12 01:08:14;;;;;;;9.70;7.80;;;;;;;6.80;70.40;99902.61;113561;1233;21932;-77
2023/04/12 01:11:38;;;;;;;9.90;8.10;;;;;;;6.73;70.48;99900.56;113824;1233;23008;-78
2023/04/12 01:14:21;;;;;;;11.10;8.00;;;;;;;6.64;70.67;99902.02;113633;1233;23054;-77
2023/04/12 01:16:57;;;;;;;9.10;7.20;;;;;;;6.62;70.65;99906.06;113557;1233;22703;-77
2023/04/12 01:19:32;;;;;;;10.20;7.20;;;;;;;6.61;70.82;99905.23;113580;1233;21944;-79
2023/04/12 01:22:59;;;;;;;10.60;7.70;;;;;;;6.63;70.89;99903.42;113726;1233;21976;-78
2023/04/12 01:25:46;;;;;;;8.90;7.00;;;;;;;6.63;71.00;99899.96;113171;1240;21955;-77
2023/04/12 01:28:28;;;;;;;10.00;7.30;;;;;;;6.64;70.94;99901.83;113201;1240;22641;-77
2023/04/12 01:31:00;;;;;;;15.30;8.20;;;;;;;6.66;71.02;99905.77;112926;1240;23574;-77
2023/04/12 01:33:31;;;;;;;11.30;7.80;;;;;;;6.67;71.02;99905.38;112948;1240;21944;-77
2023/04/12 01:36:06;;;;;;;12.80;8.80;;;;;;;6.66;71.01;99906.11;112920;1240;21953;-77
2023/04/12 01:38:36;;;;;;;9.40;7.90;;;;;;;6.65;71.03;99903.20;112904;1240;21958;-78
2023/04/12 01:41:07;;;;;;;12.70;8.20;;;;;;;6.65;71.06;99899.74;112835;1240;21946;-77
2023/04/12 01:43:41;;;;;;;12.10;10.00;;;;;;;6.65;70.95;99899.07;112920;1240;22163;-76
2023/04/12 01:46:21;;;;;;;10.80;9.50;;;;;;;6.65;71.03;99900.94;113047;1239;23668;-78
2023/04/12 01:48:53;;;;;;;12.40;10.70;;;;;;;6.62;70.96;99896.71;112839;1240;24277;-78
2023/04/12 01:51:57;;;;;;;10.50;8.70;;;;;;;6.60;70.96;99897.62;113241;1240;22018;-78
2023/04/12 01:54:37;;;;;;;13.10;8.20;;;;;;;6.55;70.89;99896.23;112871;1240;21954;-77
2023/04/12 01:57:10;;;;;;;12.20;8.20;;;;;;;6.49;71.04;99896.91;112547;1240;21948;-77
2023/04/12 01:59:42;;;;;;;12.30;9.50;;;;;;;6.48;71.10;99897.30;113198;1237;21972;-77
2023/04/12 02:02:12;;;;;;;11.30;10.10;;;;;;;6.48;71.22;99899.20;113222;1233;21965;-76
2023/04/12 02:04:43;;;;;;;12.20;11.00;;;;;;;6.46;71.19;99898.54;113337;1233;21936;-75
2023/04/12 02:07:17;;;;;;;13.20;10.90;;;;;;;6.46;71.17;99900.46;113784;1233;22829;-76
2023/04/12 02:09:47;;;;;;;13.50;12.20;;;;;;;6.46;71.38;99903.04;113644;1233;21926;-77
2023/04/12 02:12:22;;;;;;;13.10;11.40;;;;;;;6.50;71.33;99900.18;113603;1233;23599;-75
2023/04/12 02:14:51;;;;;;;12.50;10.70;;;;;;;6.51;71.34;99898.23;113484;1233;22258;-76
2023/04/12 02:17:21;;;;;;;11.60;10.40;;;;;;;6.54;71.26;99897.64;113683;1233;21925;-75
2023/04/12 02:19:50;;;;;;;12.90;11.60;;;;;;;6.55;71.32;99897.45;113580;1233;21921;-76
2023/04/12 02:22:20;;;;;;;14.70;13.00;;;;;;;6.56;71.23;99895.68;113560;1233;21955;-76
2023/04/12 02:24:53;;;;;;;15.90;12.80;;;;;;;6.57;71.13;99896.36;113563;1233;21941;-75
2023/04/12 02:27:24;;;;;;;13.70;12.20;;;;;;;6.57;71.25;99894.80;113417;1233;22453;-77
2023/04/12 02:29:58;;;;;;;18.70;13.30;;;;;;;6.55;71.08;99891.20;113314;1233;21934;-75
2023/04/12 02:32:31;;;;;;;14.20;12.70;;;;;;;6.53;71.10;99890.75;113038;1240;21938;-75
2023/04/12 02:35:03;;;;;;;16.10;14.40;;;;;;;6.53;71.14;99890.42;112091;1245;22748;-75
2023/04/12 02:37:34;;;;;;;18.80;15.30;;;;;;;6.54;71.21;99893.31;111524;1250;22732;-75
2023/04/12 02:40:09;;;;;;;19.00;14.20;;;;;;;6.56;71.18;99893.45;111827;1250;21969;-76
2023/04/12 02:42:44;;;;;;;13.60;12.20;;;;;;;6.56;71.22;99891.89;111552;1250;21957;-76
2023/04/12 02:45:17;;;;;;;10.40;9.30;;;;;;;6.57;71.28;99889.77;111729;1250;21953;-75
2023/04/12 02:47:48;;;;;;;11.70;9.40;;;;;;;6.54;71.16;99886.55;111689;1250;23025;-76
2023/04/12 02:50:19;;;;;;;9.80;8.80;;;;;;;6.49;71.08;99883.60;111903;1242;21949;-77
2023/04/12 02:53:00;;;;;;;11.90;10.20;;;;;;;6.45;71.12;99886.83;111916;1244;22932;-75
2023/04/12 02:55:37;;;;;;;14.60;11.40;;;;;;;6.44;71.26;99885.13;112565;1240;22139;-76
2023/04/12 02:58:13;;;;;;;14.50;12.60;;;;;;;6.45;71.38;99877.14;112933;1240;21970;-75
2023/04/12 03:00:48;;;;;;;12.80;11.50;;;;;;;6.47;71.36;99873.98;113025;1240;22120;-75
2023/04/12 03:03:23;;;;;;;13.70;12.20;;;;;;;6.47;71.28;99877.60;112828;1240;21967;-77
2023/04/12 03:05:58;;;;;;;11.50;10.30;;;;;;;6.47;71.21;99876.58;112528;1242;21940;-76
2023/04/12 03:08:28;;;;;;;14.70;10.70;;;;;;;6.47;71.27;99876.06;112487;1242;22154;-75
2023/04/12 03:10:59;;;;;;;11.20;10.10;;;;;;;6.48;71.29;99872.23;112281;1242;21951;-77
2023/04/12 03:13:30;;;;;;;15.50;10.60;;;;;;;6.48;71.54;99875.50;112587;1242;23030;-77
2023/04/12 03:16:20;;;;;;;13.00;11.70;;;;;;;6.49;71.45;99876.17;112533;1242;23816;-77
2023/04/12 03:19:00;;;;;;;13.10;10.30;;;;;;;6.48;71.64;99879.30;112582;1242;21947;-75
2023/04/12 03:21:32;;;;;;;9.80;8.90;;;;;;;6.49;71.62;99876.88;111997;1246;22126;-77
2023/04/12 03:24:05;;;;;;;11.80;10.50;;;;;;;6.49;71.56;99874.62;111488;1250;21952;-76
2023/04/12 03:26:37;;;;;;;13.10;9.60;;;;;;;6.49;71.47;99873.58;111273;1256;23042;-76
2023/04/12 03:29:18;;;;;;;11.60;10.40;;;;;;;6.50;71.52;99874.25;111353;1250;21975;-76
2023/04/12 03:31:49;;;;;;;13.90;10.80;;;;;;;6.51;71.69;99876.28;111999;1246;21914;-78
2023/04/12 03:34:19;;;;;;;15.50;12.80;;;;;;;6.52;71.68;99874.54;112265;1246;23027;-77
2023/04/12 03:36:58;;;;;;;21.60;18.40;;;;;;;6.54;71.67;99870.33;112037;1246;21958;-77
2023/04/12 03:39:46;;;;;;;12.00;10.40;;;;;;;6.53;71.62;99869.14;112410;1242;22161;-77
2023/04/12 03:42:21;;;;;;;11.00;9.90;;;;;;;6.50;71.46;99869.92;112841;1240;23705;-78
2023/04/12 03:45:10;;;;;;;14.90;12.10;;;;;;;6.47;71.63;99875.03;113176;1232;23597;-75
2023/04/12 03:47:50;;;;;;;13.50;11.70;;;;;;;6.45;71.55;99870.58;113617;1232;23047;-77
2023/04/12 03:50:22;;;;;;;12.90;11.60;;;;;;;6.43;71.56;99870.12;113722;1232;23957;-77
2023/04/12 03:52:57;;;;;;;12.40;11.10;;;;;;;6.43;71.68;99872.38;113458;1233;23009;-77
2023/04/12 03:55:34;;;;;;;15.20;12.00;;;;;;;6.46;71.72;99873.66;113651;1233;21926;-77
2023/04/12 03:58:17;;;;;;;14.80;13.10;;;;;;;6.47;71.80;99870.89;113656;1232;21936;-76
2023/04/12 04:00:57;;;;;;;13.70;12.30;;;;;;;6.46;71.70;99868.65;113702;1232;21928;-76
2023/04/12 04:03:28;;;;;;;14.80;11.80;;;;;;;6.44;71.49;99864.54;113571;1232;23689;-76
2023/04/12 04:06:10;;;;;;;13.60;11.90;;;;;;;6.43;71.69;99864.92;113635;1233;21939;-77
2023/04/12 04:08:41;;;;;;;15.50;13.90;;;;;;;6.44;71.71;99866.61;112794;1240;22702;-78
2023/04/12 04:11:16;;;;;;;22.10;12.20;;;;;;;6.45;71.80;99858.48;112929;1239;22050;-78
2023/04/12 04:13:54;;;;;;;12.90;11.70;;;;;;;6.47;71.81;99859.64;112567;1240;22063;-76
2023/04/12 04:16:24;;;;;;;16.30;13.10;;;;;;;6.48;71.99;99860.48;111809;1247;22168;-76
2023/04/12 04:18:57;;;;;;;14.70;12.90;;;;;;;6.49;71.79;99859.23;111976;1247;24569;-76
2023/04/12 04:21:29;;;;;;;15.00;13.40;;;;;;;6.51;71.72;99862.13;112040;1247;21954;-76
2023/04/12 04:24:00;;;;;;;14.50;12.60;;;;;;;6.52;71.88;99861.74;111612;1251;21988;-78
2023/04/12 04:26:32;;;;;;;14.50;11.90;;;;;;;6.50;71.90;99864.20;111467;1245;21969;-76
2023/04/12 04:29:17;;;;;;;12.10;10.90;;;;;;;6.49;71.96;99868.05;112332;1245;23622;-77
2023/04/12 04:31:47;;;;;;;13.30;11.20;;;;;;;6.49;71.89;99872.02;112139;1245;22048;-78
2023/04/12 04:34:17;;;;;;;12.00;10.80;;;;;;;6.50;71.81;99874.59;112333;1240;24027;-76
2023/04/12 04:36:51;;;;;;;13.00;11.40;;;;;;;6.48;71.88;99878.96;112987;1239;21949;-77
2023/04/12 04:39:26;;;;;;;15.80;11.00;;;;;;;6.47;71.92;99881.23;112933;1240;23741;-75
2023/04/12 04:41:59;;;;;;;12.90;11.30;;;;;;;6.48;71.95;99877.23;113171;1232;22709;-76
2023/04/12 04:44:36;;;;;;;15.90;11.20;;;;;;;6.49;71.94;99876.86;113637;1233;22699;-76
2023/04/12 04:47:10;;;;;;;11.40;10.40;;;;;;;6.49;71.82;99881.35;113574;1233;21932;-76
2023/04/12 04:49:44;;;;;;;13.20;11.50;;;;;;;6.47;71.73;99881.08;113405;1233;21971;-77
2023/04/12 04:52:34;;;;;;;15.00;12.60;;;;;;;6.48;72.00;99886.92;112929;1238;21936;-76
2023/04/12 04:55:24;;;;;;;14.20;12.70;;;;;;;6.51;71.91;99890.29;112906;1238;23028;-77
2023/04/12 04:58:01;;;;;;;16.70;13.00;;;;;;;6.53;71.98;99892.14;113003;1239;21951;-77
2023/04/12 05:00:35;;;;;;;14.20;12.10;;;;;;;6.55;72.02;99891.58;112607;1239;23721;-75
2023/04/12 05:03:07;;;;;;;14.70;12.90;;;;;;;6.57;71.93;99892.72;112854;1239;23036;-76
2023/04/12 05:05:43;;;;;;;15.90;12.60;;;;;;;6.58;71.91;99892.50;112783;1238;21966;-77
2023/04/12 05:08:20;;;;;;;13.90;12.40;;;;;;;6.56;71.71;99885.98;113023;1238;22277;-76
2023/04/12 05:10:52;;;;;;;13.50;10.30;;;;;;;6.54;71.86;99875.85;112261;1244;22979;-77
2023/04/12 05:13:28;;;;;;;13.60;11.60;;;;;;;6.57;72.05;99879.23;112122;1244;23604;-76
2023/04/12 05:16:07;;;;;;;16.80;12.10;;;;;;;6.62;72.18;99881.33;112129;1244;23038;-75
2023/04/12 05:18:38;;;;;;;13.70;11.70;;;;;;;6.67;72.04;99883.27;112444;1240;21987;-76
2023/04/12 05:21:11;;;;;;;24.20;14.50;;;;;;;6.72;72.03;99878.29;112530;1240;23119;-76
2023/04/12 05:23:49;;;;;;;24.50;18.00;;;;;;;6.74;71.99;99885.83;112810;1240;21953;-77
2023/04/12 05:26:24;;;;;;;23.20;16.30;;;;;;;6.74;72.01;99889.10;112323;1244;21958;-77
2023/04/12 05:29:00;;;;;;;16.80;13.30;;;;;;;6.78;72.08;99890.55;112000;1249;22202;-76
2023/04/12 05:31:32;;;;;;;15.40;13.40;;;;;;;6.85;72.07;99888.42;112060;1248;21950;-78
2023/04/12 05:34:09;;;;;;;15.30;13.60;;;;;;;6.91;71.95;99891.72;111813;1250;21944;-76
2023/04/12 05:36:43;;;;;;;15.30;13.20;;;;;;;6.99;72.03;99893.36;112631;1237;23025;-77
2023/04/12 05:39:22;;;;;;;19.90;16.30;;;;;;;7.07;71.94;99890.02;112385;1243;23043;-76
2023/04/12 05:41:56;;;;;;;20.80;18.60;;;;;;;7.11;71.77;99889.73;111988;1243;22077;-76
2023/04/12 05:44:28;;;;;;;17.20;15.40;;;;;;;7.16;71.85;99891.82;112127;1246;21936;-77
2023/04/12 05:46:58;;;;;;;17.20;15.60;;;;;;;7.22;71.81;99892.84;112111;1246;23648;-77
2023/04/12 05:49:30;;;;;;;16.60;15.00;;;;;;;7.32;71.87;99895.48;112064;1246;24293;-76
2023/04/12 05:52:02;;;;;;;17.40;15.40;;;;;;;7.37;71.69;99889.61;111823;1245;21989;-77
2023/04/12 05:54:34;;;;;;;16.10;14.50;;;;;;;7.40;71.59;99891.76;112997;1238;21938;-76
2023/04/12 05:57:03;;;;;;;17.00;15.20;;;;;;;7.43;71.30;99892.86;112558;1244;23590;-75
2023/04/12 05:59:34;;;;;;;17.30;14.10;;;;;;;7.48;71.38;99897.72;112252;1244;22672;-81
2023/04/12 06:02:03;;;;;;;15.60;14.20;;;;;;;7.56;71.36;99898.67;112233;1239;22032;-76
2023/04/12 06:04:33;;;;;;;19.10;17.10;;;;;;;7.62;71.17;99895.39;112848;1239;22137;-76
2023/04/12 06:07:20;;;;;;;15.10;13.60;;;;;;;7.63;70.80;99897.77;112490;1243;23603;-77
2023/04/12 06:09:49;;;;;;;17.80;15.60;;;;;;;7.61;70.62;99900.77;112632;1243;21981;-75
2023/04/12 06:12:19;;;;;;;16.20;14.50;;;;;;;7.61;70.63;99901.27;112227;1243;23031;-75
2023/04/12 06:14:49;;;;;;;16.50;14.10;;;;;;;7.62;70.32;99899.54;112602;1237;21961;-75
2023/04/12 06:17:18;;;;;;;16.60;14.70;;;;;;;7.64;70.29;99893.91;113272;1238;23740;-75
2023/04/12 06:19:47;;;;;;;16.10;14.60;;;;;;;7.66;70.09;99889.89;113411;1237;23954;-77
2023/04/12 06:22:17;;;;;;;15.20;13.60;;;;;;;7.68;70.23;99885.32;113203;1237;21984;-78
2023/04/12 06:24:46;;;;;;;14.20;12.40;;;;;;;7.74;70.34;99880.77;113471;1232;22065;-80
2023/04/12 06:27:16;;;;;;;15.70;14.00;;;;;;;7.81;70.26;99873.44;113604;1232;23446;-77
2023/04/12 06:29:45;;;;;;;13.70;12.40;;;;;;;7.84;69.89;99867.98;113625;1232;23870;-76
2023/04/12 06:32:15;;;;;;;15.40;13.70;;;;;;;7.83;69.75;99866.95;113581;1232;21968;-76
2023/04/12 06:34:44;;;;;;;18.60;16.70;;;;;;;7.87;69.89;99865.79;113590;1232;21935;-76
2023/04/12 06:37:16;;;;;;;18.90;17.00;;;;;;;7.92;69.74;99863.55;113435;1232;22375;-75
2023/04/12 06:39:45;;;;;;;15.60;14.00;;;;;;;7.98;69.85;99860.91;113632;1232;22062;-77
2023/04/12 06:42:14;;;;;;;15.00;13.50;;;;;;;8.06;69.80;99859.09;113683;1232;21897;-76
2023/04/12 06:44:44;;;;;;;15.20;13.70;;;;;;;8.09;69.47;99861.72;113546;1232;23796;-76
2023/04/12 06:47:13;;;;;;;14.00;12.50;;;;;;;8.09;69.18;99863.27;113694;1232;21970;-76
2023/04/12 06:49:42;;;;;;;14.40;13.00;;;;;;;8.13;69.16;99865.06;113343;1237;21943;-75
2023/04/12 06:52:11;;;;;;;12.90;11.70;;;;;;;8.15;68.95;99869.15;113035;1237;21958;-75
2023/04/12 06:54:41;;;;;;;14.60;12.40;;;;;;;8.16;68.55;99868.78;112991;1237;23621;-75
2023/04/12 06:57:10;;;;;;;15.20;13.20;;;;;;;8.15;68.58;99869.48;113345;1238;22659;-76
2023/04/12 06:59:40;;;;;;;16.00;13.20;;;;;;;8.18;68.53;99862.80;113328;1237;21961;-76
2023/04/12 07:02:09;;;;;;;17.30;14.00;;;;;;;8.22;68.53;99864.57;113192;1238;21955;-76
2023/04/12 07:04:39;;;;;;;15.20;13.70;;;;;;;8.26;68.40;99864.60;113088;1237;22308;-75
2023/04/12 07:07:09;;;;;;;19.40;16.60;;;;;;;8.24;68.16;99861.90;113261;1232;21928;-77
2023/04/12 07:09:39;;;;;;;18.60;16.00;;;;;;;8.27;68.28;99856.42;113686;1232;21978;-75
2023/04/12 07:12:08;;;;;;;16.50;14.90;;;;;;;8.30;68.26;99857.37;113512;1232;24348;-76
2023/04/12 07:14:37;;;;;;;14.50;12.90;;;;;;;8.33;68.31;99854.97;113827;1232;21952;-75
2023/04/12 07:17:06;;;;;;;16.20;14.50;;;;;;;8.40;68.46;99854.39;113533;1232;21928;-76
2023/04/12 07:19:36;;;;;;;18.20;16.50;;;;;;;8.48;68.47;99856.52;113411;1232;22201;-77
2023/04/12 07:22:05;;;;;;;14.70;13.20;;;;;;;8.58;68.50;99860.67;113383;1232;22057;-76
2023/04/12 07:24:34;;;;;;;14.00;12.70;;;;;;;8.71;68.38;99859.64;113604;1232;22364;-75
2023/04/12 07:27:03;;;;;;;16.20;14.60;;;;;;;8.79;67.83;99849.64;113609;1232;23668;-74
2023/04/12 07:29:33;;;;;;;18.80;16.80;;;;;;;8.79;67.41;99841.84;113472;1232;21979;-77
2023/04/12 07:32:03;;;;;;;16.00;14.40;;;;;;;8.87;67.65;99844.84;113478;1232;21930;-80
2023/04/12 07:34:33;;;;;;;14.70;12.30;;;;;;;8.98;67.79;99850.66;113713;1232;23388;-75
2023/04/12 07:37:02;;;;;;;14.50;13.10;;;;;;;9.04;67.35;99848.86;113525;1232;21954;-75
2023/04/12 07:39:33;;;;;;;16.70;13.60;;;;;;;9.03;66.82;99848.55;113446;1232;21935;-74
2023/04/12 07:42:03;;;;;;;14.10;11.90;;;;;;;9.03;66.67;99848.04;113748;1231;22237;-75
2023/04/12 07:44:33;;;;;;;11.60;10.40;;;;;;;9.09;66.98;99853.20;113539;1232;21932;-75
2023/04/12 07:47:06;;;;;;;10.60;9.50;;;;;;;9.16;66.88;99842.30;113675;1232;23050;-77
2023/04/12 07:49:35;;;;;;;7.70;7.00;;;;;;;9.21;66.57;99841.44;113740;1232;21949;-75
2023/04/12 07:52:04;;;;;;;11.20;10.10;;;;;;;9.25;66.36;99840.41;113597;1232;21931;-75
2023/04/12 07:54:33;;;;;;;12.00;10.60;;;;;;;9.29;65.88;99840.60;113606;1232;23602;-76
2023/04/12 07:57:03;;;;;;;11.70;9.70;;;;;;;9.26;65.59;99837.59;113542;1232;23680;-73
2023/04/12 07:59:32;;;;;;;148.30;25.80;;;;;;;9.28;65.47;99836.98;113498;1232;21932;-77
2023/04/12 08:02:02;;;;;;;13.70;8.90;;;;;;;9.31;65.35;99840.83;113587;1232;21926;-77
2023/04/12 08:04:32;;;;;;;10.80;9.70;;;;;;;9.33;64.96;99841.27;113512;1232;21929;-76
2023/04/12 08:07:04;;;;;;;13.30;12.00;;;;;;;9.30;64.76;99841.39;113520;1232;21943;-79
2023/04/12 08:09:33;;;;;;;14.00;11.40;;;;;;;9.32;64.97;99838.73;113399;1232;21979;-74
2023/04/12 08:12:03;;;;;;;10.80;9.80;;;;;;;9.39;65.00;99842.44;113655;1229;23009;-76
2023/04/12 08:14:32;;;;;;;10.50;9.60;;;;;;;9.44;64.73;99844.82;113635;1232;23840;-76
2023/04/12 08:17:01;;;;;;;10.60;8.80;;;;;;;9.47;64.69;99841.56;113762;1232;21932;-75
2023/04/12 08:19:31;;;;;;;11.00;10.00;;;;;;;9.54;64.76;99836.41;113730;1232;21946;-75
2023/04/12 08:22:00;;;;;;;10.40;9.40;;;;;;;9.68;65.00;99835.29;113634;1232;22515;-76
2023/04/12 08:24:30;;;;;;;39.20;23.20;;;;;;;9.89;65.30;99837.71;112877;1239;23625;-76
2023/04/12 08:27:00;;;;;;;11.70;10.60;;;;;;;10.03;64.24;99835.73;112874;1239;21969;-76
2023/04/12 08:29:30;;;;;;;24.60;15.80;;;;;;;10.10;63.73;99832.14;113210;1232;22466;-75
2023/04/12 08:32:00;;;;;;;13.40;12.10;;;;;;;10.26;63.57;99829.36;112653;1239;23006;-75
2023/04/12 08:34:29;;;;;;;40.90;26.50;;;;;;;10.45;63.64;99829.54;112965;1239;23632;-77
2023/04/12 08:36:59;;;;;;;16.00;12.60;;;;;;;10.74;63.49;99828.54;112907;1239;23571;-77
2023/04/12 08:39:31;;;;;;;10.30;8.90;;;;;;;11.09;63.46;99824.09;112685;1239;23575;-76
2023/04/12 08:42:03;;;;;;;8.90;7.40;;;;;;;11.67;63.76;99826.16;113091;1232;21957;-76
2023/04/12 08:44:37;;;;;;;;;;;;;;;12.50;63.82;99829.50;113665;1232;21996;-78
2023/04/12 08:47:10;;;;;;;12.70;8.40;;;;;;;13.18;61.91;99828.23;113816;1232;21931;-77
2023/04/12 08:49:40;;;;;;;7.50;6.10;;;;;;;13.44;58.60;99824.13;113771;1232;21932;-76
2023/04/12 08:52:10;;;;;;;8.30;5.80;;;;;;;13.49;57.00;99826.30;113439;1232;21940;-78
2023/04/12 08:54:40;;;;;;;9.80;7.50;;;;;;;13.63;56.58;99825.11;113584;1232;23006;-76
2023/04/12 08:57:11;;;;;;;8.10;7.10;;;;;;;13.93;56.53;99819.16;113433;1232;22710;-77
2023/04/12 08:59:44;;;;;;;8.20;6.40;;;;;;;14.44;55.88;99817.12;113669;1232;23002;-76
2023/04/12 09:02:13;;;;;;;7.80;6.80;;;;;;;15.15;55.55;99823.48;113915;1232;21890;-79
2023/04/12 09:04:49;;;;;;;8.10;5.60;;;;;;;15.96;54.26;99820.39;113468;1232;22054;-81
2023/04/12 09:07:22;;;;;;;8.10;6.60;;;;;;;16.41;50.38;99811.33;113708;1232;22597;-78
2023/04/12 09:09:51;;;;;;;8.30;5.70;;;;;;;16.45;48.24;99809.97;113404;1232;23571;-77
2023/04/12 09:12:23;;;;;;;5.60;5.00;;;;;;;16.39;47.52;99808.09;113767;1232;21954;-79
2023/04/12 09:15:11;;;;;;;5.50;4.90;;;;;;;16.20;46.72;99809.27;113672;1232;22942;-78
2023/04/12 09:17:41;;;;;;;10.00;6.00;;;;;;;15.91;46.66;99806.32;114026;1232;21983;-78
2023/04/12 09:20:11;;;;;;;7.50;5.80;;;;;;;15.71;46.90;99808.53;113645;1232;23584;-78
2023/04/12 09:22:44;;;;;;;5.80;3.90;;;;;;;15.47;46.66;99809.28;114054;1232;23607;-79
2023/04/12 09:25:15;;;;;;;6.10;4.10;;;;;;;15.31;47.09;99807.16;113453;1232;22423;-77
2023/04/12 09:27:50;;;;;;;5.20;4.10;;;;;;;15.27;47.74;99802.17;113591;1232;21971;-78
2023/04/12 09:30:20;;;;;;;8.80;7.10;;;;;;;15.59;47.62;99807.27;113699;1232;21942;-79
2023/04/12 09:32:49;;;;;;;14.80;13.40;;;;;;;15.58;46.73;99804.70;113436;1238;23055;-78
2023/04/12 09:35:32;;;;;;;14.00;12.40;;;;;;;15.32;45.81;99799.77;113233;1238;22088;-77
2023/04/12 09:38:09;;;;;;;7.50;6.80;;;;;;;14.98;46.16;99797.08;113084;1239;23038;-77
2023/04/12 09:40:39;;;;;;;4.50;4.10;;;;;;;14.85;46.86;99796.35;113306;1239;23104;-78
2023/04/12 09:43:09;;;;;;;5.70;4.90;;;;;;;14.76;46.61;99795.66;113172;1230;22992;-77
2023/04/12 09:45:39;;;;;;;5.80;5.30;;;;;;;14.64;47.22;99788.73;113090;1238;23683;-80
2023/04/12 09:48:20;;;;;;;6.30;5.70;;;;;;;15.16;48.83;99779.77;113302;1239;23099;-79
2023/04/12 09:50:57;;;;;;;7.20;6.40;;;;;;;16.24;49.04;99778.59;113343;1232;23816;-78
2023/04/12 09:53:40;;;;;;;5.80;5.20;;;;;;;17.28;46.97;99776.55;113416;1232;21962;-79
2023/04/12 09:56:11;;;;;;;5.70;5.10;;;;;;;18.29;45.83;99771.63;113677;1232;22415;-78
2023/04/12 09:58:42;;;;;;;5.80;5.30;;;;;;;19.16;42.22;99766.42;113644;1232;23678;-77
2023/04/12 10:01:11;;;;;;;6.00;5.40;;;;;;;19.55;38.85;99763.66;113647;1232;21940;-79
2023/04/12 10:03:43;;;;;;;7.30;5.30;;;;;;;19.82;37.89;99760.02;113723;1232;21964;-79
2023/04/12 10:06:14;;;;;;;8.60;7.20;;;;;;;19.75;37.16;99755.09;113829;1232;21891;-78
2023/04/12 10:08:45;;;;;;;5.20;4.70;;;;;;;20.03;38.70;99752.70;113872;1232;23056;-79
2023/04/12 10:11:14;;;;;;;6.00;5.40;;;;;;;20.66;37.43;99751.30;113859;1232;21935;-78
2023/04/12 10:13:44;;;;;;;5.70;5.20;;;;;;;20.66;36.30;99748.30;113773;1232;24482;-77
2023/04/12 10:16:15;;;;;;;5.20;4.80;;;;;;;20.17;35.02;99745.64;113802;1231;21958;-78
2023/04/12 10:18:46;;;;;;;;;;;;;;;19.13;35.00;99743.87;113758;1232;21894;-79
2023/04/12 10:21:16;;;;;;;6.50;5.60;;;;;;;18.71;37.06;99739.25;113676;1232;22135;-78
2023/04/12 10:23:46;;;;;;;6.20;5.60;;;;;;;18.69;37.76;99736.06;113443;1232;21951;-78
2023/04/12 10:26:16;;;;;;;6.90;6.20;;;;;;;19.10;38.58;99729.13;113412;1232;21945;-80
2023/04/12 10:28:46;;;;;;;6.60;6.00;;;;;;;19.66;37.40;99729.13;113261;1232;22966;-81
2023/04/12 10:32:11;;;;;;;8.00;6.90;;;;;;;19.81;36.87;99730.66;113554;1232;22324;-78
2023/04/12 10:34:55;;;;;;;5.70;5.10;;;;;;;19.75;35.85;99726.52;113536;1232;21934;-77
2023/04/12 10:38:00;;;;;;;4.90;4.40;;;;;;;19.60;34.72;99726.76;113685;1232;23093;-76
2023/04/12 10:40:32;;;;;;;9.00;5.60;;;;;;;18.78;35.20;99725.27;113699;1232;21970;-79
2023/04/12 10:43:18;;;;;;;;;;;;;;;18.18;36.18;99725.45;113557;1232;21932;-76
2023/04/12 10:45:54;;;;;;;8.10;6.40;;;;;;;17.63;37.34;99721.85;113847;1232;23565;-76
2023/04/12 10:48:51;;;;;;;6.30;5.70;;;;;;;17.49;38.81;99717.11;113563;1232;22580;-77
2023/04/12 10:51:25;;;;;;;7.60;7.00;;;;;;;17.65;39.64;99720.96;113271;1238;23487;-77
2023/04/12 10:54:07;;;;;;;7.70;6.90;;;;;;;17.97;39.55;99711.80;112900;1238;21957;-76
2023/04/12 10:56:48;;;;;;;6.40;5.60;;;;;;;18.11;37.87;99709.55;112513;1242;21944;-76
2023/04/12 10:59:58;;;;;;;5.00;4.60;;;;;;;17.83;36.30;99704.30;112603;1242;22016;-76
2023/04/12 11:02:27;;;;;;;9.90;6.30;;;;;;;17.22;35.84;99705.39;112590;1242;21933;-77
2023/04/12 11:05:09;;;;;;;7.50;6.80;;;;;;;16.75;36.65;99697.30;112116;1246;21971;-77
2023/04/12 11:07:53;;;;;;;8.40;7.40;;;;;;;16.33;37.40;99689.98;112109;1246;23015;-76
2023/04/12 11:10:45;;;;;;;14.90;11.80;;;;;;;16.04;38.50;99689.96;112455;1243;21967;-77
2023/04/12 11:13:35;;;;;;;10.60;9.60;;;;;;;15.90;39.23;99687.98;112040;1243;22972;-77
2023/04/12 11:16:06;;;;;;;8.10;7.30;;;;;;;15.82;39.81;99679.96;112385;1239;217291;-77
2023/04/12 11:18:38;;;;;;;7.90;7.10;;;;;;;15.81;40.23;99677.71;113043;1239;22183;-79
2023/04/12 11:21:17;;;;;;;14.20;9.60;;;;;;;15.87;40.47;99674.71;112912;1240;21979;-79
2023/04/12 11:23:48;;;;;;;10.60;7.30;;;;;;;15.96;40.00;99675.79;113413;1232;21953;-79
2023/04/12 11:26:20;;;;;;;5.40;4.90;;;;;;;15.88;39.20;99669.88;113773;1232;23606;-78
2023/04/12 11:28:52;;;;;;;6.40;5.80;;;;;;;15.78;39.28;99668.27;114201;1232;21944;-79
2023/04/12 11:31:28;;;;;;;6.10;5.30;;;;;;;15.65;38.92;99664.45;113578;1224;21932;-78
2023/04/12 11:34:09;;;;;;;6.00;5.40;;;;;;;15.54;39.22;99664.10;113614;1232;21945;-78
2023/04/12 11:36:55;;;;;;;9.70;6.00;;;;;;;15.56;39.53;99663.30;113504;1232;21933;-77
2023/04/12 11:39:30;;;;;;;5.90;5.00;;;;;;;15.44;39.23;99661.16;113430;1232;21941;-78
2023/04/12 11:42:28;;;;;;;7.60;4.80;;;;;;;15.28;39.42;99656.98;113319;1232;22345;-80
2023/04/12 11:45:06;;;;;;;5.10;4.20;;;;;;;15.17;39.85;99653.55;112880;1239;21942;-77
2023/04/12 11:47:53;;;;;;;4.10;3.60;;;;;;;15.12;39.79;99652.63;112997;1239;21982;-80
2023/04/12 11:50:31;;;;;;;4.50;4.10;;;;;;;15.05;39.48;99653.48;112831;1239;21951;-77
2023/04/12 11:53:12;;;;;;;5.80;5.20;;;;;;;15.03;39.86;99651.33;112802;1238;21970;-79
2023/04/12 11:55:57;;;;;;;5.70;5.00;;;;;;;15.08;40.16;99646.77;112652;1239;21959;-79